Time;durP1;ratioP1;P1;durP2;ratioP2;P2;SDS_P1;SDS_P2;PMS_P1;PMS_P2;Temp;Humidity;BMP_temperature;BMP_pressure;BME280_temperature;BME280_humidity;BME280_pressure;Samples;Min_cycle;Max_cycle;Signal;HPM_P1;HPM_P2
2023/06/03 00:00:47;;;;;;;;;;;;;;;-140.72;100.00;52650.59;6251583;23;19912;-71
2023/06/03 00:03:13;;;;;;;;;;;;;;;-140.72;100.00;52632.34;6223044;23;19954;-71
2023/06/03 00:05:41;;;;;;;;;;;;;;;-140.72;100.00;52652.63;6246360;23;20239;-71
2023/06/03 00:08:12;;;;;;;;;;;;;;;-140.72;100.00;52605.94;6246000;23;19918;-71
2023/06/03 00:10:38;;;;;;;;;;;;;;;-140.72;100.00;52632.34;6245861;23;20286;-71
2023/06/03 00:13:03;;;;;;;;;;;;;;;-140.72;100.00;52650.59;6245628;23;19916;-72
2023/06/03 00:15:28;;;;;;;;;;;;;;;-140.72;100.00;52646.53;6245325;23;19939;-71
2023/06/03 00:17:53;;;;;;;;;;;;;;;-140.72;100.00;52640.44;6245710;23;19918;-71
2023/06/03 00:20:18;;;;;;;;;;;;;;;-140.72;100.00;52614.06;6245780;23;19911;-71
2023/06/03 00:22:45;;;;;;;;;;;;;;;-140.72;100.00;52660.75;6246574;23;19920;-71
2023/06/03 00:25:11;;;;;;;;;;;;;;;-140.72;100.00;52638.41;6257628;23;19912;-71
2023/06/03 00:27:37;;;;;;;;;;;;;;;-140.72;100.00;52650.59;6248676;23;19911;-71
2023/06/03 00:30:03;;;;;;;;;;;;;;;-140.72;100.00;52654.66;6245887;23;19995;-71
2023/06/03 00:32:28;;;;;;;;;;;;;;;-140.72;100.00;52628.28;6246302;23;19911;-71
2023/06/03 00:34:53;;;;;;;;;;;;;;;-140.72;100.00;52642.47;6245676;23;19963;-71
2023/06/03 00:37:18;;;;;;;;;;;;;;;-140.72;100.00;52652.63;6245715;23;19923;-71
2023/06/03 00:39:43;;;;;;;;;;;;;;;-140.72;100.00;52672.91;6245208;22;19912;-71
2023/06/03 00:42:09;;;;;;;;;;;;;;;-140.72;100.00;52640.44;6245595;23;20354;-71
2023/06/03 00:44:34;;;;;;;;;;;;;;;-140.72;100.00;52646.53;6245366;23;20285;-71
2023/06/03 00:46:59;;;;;;;;;;;;;;;-140.72;100.00;52626.25;6245295;23;19934;-71
2023/06/03 00:49:24;;;;;;;;;;;;;;;-140.72;100.00;52622.19;6246438;23;20317;-71
2023/06/03 00:51:50;;;;;;;;;;;;;;;-140.72;100.00;52626.25;6247357;23;19911;-72
2023/06/03 00:54:15;;;;;;;;;;;;;;;-140.72;100.00;52626.25;6246545;23;19918;-72
2023/06/03 00:56:44;;;;;;;;;;;;;;;-140.72;100.00;52654.66;6244918;23;19912;-72
2023/06/03 00:59:14;;;;;;;;;;;;;;;-140.72;100.00;52640.44;6245213;23;19912;-71
2023/06/03 01:01:42;;;;;;;;;;;;;;;-140.72;100.00;52660.75;6245850;23;19912;-71
2023/06/03 01:04:07;;;;;;;;;;;;;;;-140.72;100.00;52646.53;6247110;23;19912;-71
2023/06/03 01:06:35;;;;;;;;;;;;;;;-140.72;100.00;52636.38;6245329;23;19966;-71
2023/06/03 01:09:04;;;;;;;;;;;;;;;-140.72;100.00;52656.69;6244638;23;20064;-71
2023/06/03 01:11:35;;;;;;;;;;;;;;;-140.72;100.00;52656.69;6244414;23;19919;-71
2023/06/03 01:14:08;;;;;;;;;;;;;;;-140.72;100.00;52640.44;6217695;23;19941;-71
2023/06/03 01:16:36;;;;;;;;;;;;;;;-140.72;100.00;52634.38;6244366;23;19954;-71
2023/06/03 01:19:07;;;;;;;;;;;;;;;-140.72;100.00;52650.59;6244384;23;19912;-71
2023/06/03 01:21:34;;;;;;;;;;;;;;;-140.72;100.00;52638.41;6217231;23;19912;-71
2023/06/03 01:23:59;;;;;;;;;;;;;;;-140.72;100.00;52648.56;6244466;23;20058;-71
2023/06/03 01:26:28;;;;;;;;;;;;;;;-140.72;100.00;52634.38;6243758;23;20434;-71
2023/06/03 01:28:54;;;;;;;;;;;;;;;-140.72;100.00;52672.91;6244993;23;19965;-71
2023/06/03 01:31:19;;;;;;;;;;;;;;;-140.72;100.00;52658.72;6244105;23;20247;-71
2023/06/03 01:33:45;;;;;;;;;;;;;;;-140.72;100.00;52670.88;6244808;23;19943;-71
2023/06/03 01:36:10;;;;;;;;;;;;;;;-140.72;100.00;52666.84;6244069;23;20268;-71
2023/06/03 01:38:35;;;;;;;;;;;;;;;-140.72;100.00;52670.88;6244592;22;20264;-71
2023/06/03 01:41:02;;;;;;;;;;;;;;;-140.72;100.00;52662.78;6244630;23;20244;-71
2023/06/03 01:43:28;;;;;;;;;;;;;;;-140.72;100.00;52662.78;6244592;23;19911;-71
2023/06/03 01:45:53;;;;;;;;;;;;;;;-140.72;100.00;52674.94;6243862;23;19934;-71
2023/06/03 01:48:19;;;;;;;;;;;;;;;-140.72;100.00;52650.59;6217093;23;19938;-71
2023/06/03 01:50:44;;;;;;;;;;;;;;;-140.72;100.00;52727.72;6243868;23;19915;-71
2023/06/03 01:53:14;;;;;;;;;;;;;;;-140.72;100.00;52664.81;6243600;23;19919;-71
2023/06/03 01:55:40;;;;;;;;;;;;;;;-140.72;100.00;52628.28;6244857;23;20017;-72
2023/06/03 01:58:10;;;;;;;;;;;;;;;-140.72;100.00;52687.13;6244555;23;19915;-71
2023/06/03 02:00:35;;;;;;;;;;;;;;;-140.72;100.00;52681.03;6245349;23;19918;-71
2023/06/03 02:03:01;;;;;;;;;;;;;;;-140.72;100.00;52658.72;6244774;23;20327;-71
2023/06/03 02:05:26;;;;;;;;;;;;;;;-140.72;100.00;52683.06;6245097;23;19911;-71
2023/06/03 02:07:51;;;;;;;;;;;;;;;-140.72;100.00;52672.91;6244946;23;19912;-70
2023/06/03 02:10:16;;;;;;;;;;;;;;;-140.72;100.00;52646.53;6244765;23;19934;-71
2023/06/03 02:12:44;;;;;;;;;;;;;;;-140.72;100.00;52622.19;6244235;23;19926;-71
2023/06/03 02:15:09;;;;;;;;;;;;;;;-140.72;100.00;52628.28;6244978;23;20259;-71
2023/06/03 02:17:41;;;;;;;;;;;;;;;-140.72;100.00;52664.81;6245031;23;19916;-71
2023/06/03 02:20:08;;;;;;;;;;;;;;;-140.72;100.00;52703.34;6217745;23;20029;-71
2023/06/03 02:22:33;;;;;;;;;;;;;;;-140.72;100.00;52662.78;6218045;23;19990;-71
2023/06/03 02:24:58;;;;;;;;;;;;;;;-140.72;100.00;52707.41;6244522;23;19993;-71
2023/06/03 02:27:24;;;;;;;;;;;;;;;-140.72;100.00;52683.06;6244648;23;19966;-71
2023/06/03 02:29:50;;;;;;;;;;;;;;;-140.72;100.00;52626.25;6243731;23;20007;-71
2023/06/03 02:32:16;;;;;;;;;;;;;;;-140.72;100.00;52654.66;6245540;23;19999;-71
2023/06/03 02:34:43;;;;;;;;;;;;;;;-140.72;100.00;52687.13;6245043;23;19911;-70
2023/06/03 02:37:10;;;;;;;;;;;;;;;-140.72;100.00;52670.88;6244252;23;19954;-71
2023/06/03 02:39:36;;;;;;;;;;;;;;;-140.72;100.00;52674.94;6244497;22;20327;-71
2023/06/03 02:42:01;;;;;;;;;;;;;;;-140.72;100.00;52697.28;6244780;23;19931;-71
2023/06/03 02:44:26;;;;;;;;;;;;;;;-140.72;100.00;52674.94;6244776;23;19915;-71
2023/06/03 02:47:00;;;;;;;;;;;;;;;-140.72;100.00;52662.78;6244028;23;19916;-71
2023/06/03 02:49:25;;;;;;;;;;;;;;;-140.72;100.00;52697.28;6244229;23;19916;-71
2023/06/03 02:51:50;;;;;;;;;;;;;;;-140.72;100.00;52658.72;6244121;23;19922;-71
2023/06/03 02:54:16;;;;;;;;;;;;;;;-140.72;100.00;52715.53;6244472;23;19911;-71
2023/06/03 02:56:41;;;;;;;;;;;;;;;-140.72;100.00;52654.66;6243943;23;19911;-71
2023/06/03 02:59:06;;;;;;;;;;;;;;;-140.72;100.00;52654.66;6244243;23;19918;-71
2023/06/03 03:01:31;;;;;;;;;;;;;;;-140.72;100.00;52691.19;6244310;23;19919;-71
2023/06/03 03:03:57;;;;;;;;;;;;;;;-140.72;100.00;52670.88;6217731;23;19911;-71
2023/06/03 03:06:24;;;;;;;;;;;;;;;-140.72;100.00;52664.81;6244140;23;19923;-71
2023/06/03 03:08:50;;;;;;;;;;;;;;;-140.72;100.00;52711.47;6244675;23;20261;-71
2023/06/03 03:11:15;;;;;;;;;;;;;;;-140.72;100.00;52711.47;6245974;23;19912;-71
2023/06/03 03:13:41;;;;;;;;;;;;;;;-140.72;100.00;52705.38;6245069;23;19912;-70
2023/06/03 03:16:07;;;;;;;;;;;;;;;-140.72;100.00;52685.09;6244671;23;20002;-71
2023/06/03 03:18:33;;;;;;;;;;;;;;;-140.72;100.00;52687.13;6218064;23;20367;-71
2023/06/03 03:20:58;;;;;;;;;;;;;;;-140.72;100.00;52683.06;6218296;23;19912;-71
2023/06/03 03:23:27;;;;;;;;;;;;;;;-140.72;100.00;52683.06;6244810;23;19958;-71
2023/06/03 03:25:52;;;;;;;;;;;;;;;-140.72;100.00;52691.19;6244692;23;19943;-71
2023/06/03 03:28:20;;;;;;;;;;;;;;;-140.72;100.00;52676.97;6246449;23;19912;-71
2023/06/03 03:30:46;;;;;;;;;;;;;;;-140.72;100.00;52644.50;6246173;23;19911;-71
2023/06/03 03:33:15;;;;;;;;;;;;;;;-140.72;100.00;52707.41;6246689;23;19919;-71
2023/06/03 03:35:43;;;;;;;;;;;;;;;-140.72;100.00;52721.63;6246597;23;19912;-79
2023/06/03 03:38:09;;;;;;;;;;;;;;;-140.72;100.00;52656.69;6245965;23;19912;-71
2023/06/03 03:40:39;;;;;;;;;;;;;;;-140.72;100.00;52662.78;6245800;22;19911;-72
2023/06/03 03:43:13;;;;;;;;;;;;;;;-140.72;100.00;52699.31;6246721;23;19912;-71
2023/06/03 03:45:38;;;;;;;;;;;;;;;-140.72;100.00;52683.06;6246302;23;19994;-71
2023/06/03 03:48:05;;;;;;;;;;;;;;;-140.72;100.00;52687.13;6220166;23;19953;-71
2023/06/03 03:50:40;;;;;;;;;;;;;;;-140.72;100.00;52687.13;6246714;23;19915;-71
2023/06/03 03:53:06;;;;;;;;;;;;;;;-140.72;100.00;52695.25;6245790;23;19915;-71
2023/06/03 03:55:40;;;;;;;;;;;;;;;-140.72;100.00;52681.03;6246488;23;19912;-71
2023/06/03 03:58:14;;;;;;;;;;;;;;;-140.72;100.00;52695.25;6247010;23;19911;-70
2023/06/03 04:00:39;;;;;;;;;;;;;;;-140.72;100.00;52674.94;6248227;23;20199;-71
2023/06/03 04:03:05;;;;;;;;;;;;;;;-140.72;100.00;52658.72;6247135;23;19912;-70
2023/06/03 04:05:31;;;;;;;;;;;;;;;-140.72;100.00;52656.69;6245776;23;19912;-71
2023/06/03 04:07:56;;;;;;;;;;;;;;;-140.72;100.00;52703.34;6245607;23;20042;-71
2023/06/03 04:10:22;;;;;;;;;;;;;;;-140.72;100.00;52695.25;6245894;23;19916;-71
2023/06/03 04:12:48;;;;;;;;;;;;;;;-140.72;100.00;52681.03;6245669;23;20251;-71
2023/06/03 04:15:16;;;;;;;;;;;;;;;-140.72;100.00;52699.31;6218756;23;20056;-71
2023/06/03 04:17:44;;;;;;;;;;;;;;;-140.72;100.00;52654.66;6244704;23;19915;-71
2023/06/03 04:20:39;;;;;;;;;;;;;;;-140.72;100.00;52640.44;6245631;23;19965;-70
2023/06/03 04:23:07;;;;;;;;;;;;;;;-140.72;100.00;52683.06;6171749;23;20300;-71
2023/06/03 04:25:33;;;;;;;;;;;;;;;-140.72;100.00;52648.56;6245389;23;19923;-71
2023/06/03 04:27:58;;;;;;;;;;;;;;;-140.72;100.00;52697.28;6245384;23;19960;-71
2023/06/03 04:30:24;;;;;;;;;;;;;;;-140.72;100.00;52668.84;6218652;23;19918;-71
2023/06/03 04:32:49;;;;;;;;;;;;;;;-140.72;100.00;52721.63;6245361;23;19912;-71
2023/06/03 04:35:14;;;;;;;;;;;;;;;-140.72;100.00;52656.69;6245213;23;19970;-71
2023/06/03 04:37:39;;;;;;;;;;;;;;;-140.72;100.00;52670.88;6217630;23;19919;-71
2023/06/03 04:40:05;;;;;;;;;;;;;;;-140.72;100.00;52705.38;6245055;22;19991;-73
2023/06/03 04:42:33;;;;;;;;;;;;;;;-140.72;100.00;52697.28;6245759;23;20332;-73
2023/06/03 04:45:00;;;;;;;;;;;;;;;-140.72;100.00;52685.09;6245857;23;20177;-78
2023/06/03 04:47:28;;;;;;;;;;;;;;;-140.72;100.00;52660.75;6245343;23;19911;-72
2023/06/03 04:49:54;;;;;;;;;;;;;;;-140.72;100.00;52656.69;6245650;23;20005;-72
2023/06/03 04:52:20;;;;;;;;;;;;;;;-140.72;100.00;52650.59;6245204;23;19990;-72
2023/06/03 04:54:45;;;;;;;;;;;;;;;-140.72;100.00;52674.94;6245609;23;19918;-72
2023/06/03 04:57:11;;;;;;;;;;;;;;;-140.72;100.00;52652.63;6245421;23;20166;-72
2023/06/03 04:59:36;;;;;;;;;;;;;;;-140.72;100.00;52656.69;6245170;23;20275;-71
2023/06/03 05:02:01;;;;;;;;;;;;;;;-140.72;100.00;52642.47;6218362;23;19912;-71
2023/06/03 05:04:29;;;;;;;;;;;;;;;-140.72;100.00;52658.72;6244968;23;20363;-71
2023/06/03 05:06:55;;;;;;;;;;;;;;;-140.72;100.00;52660.75;6245196;23;19919;-71
2023/06/03 05:09:21;;;;;;;;;;;;;;;-140.72;100.00;52695.25;6245159;23;19994;-71
2023/06/03 05:11:49;;;;;;;;;;;;;;;-140.72;100.00;52656.69;6246846;23;19911;-70
2023/06/03 05:14:17;;;;;;;;;;;;;;;-140.72;100.00;52674.94;6245574;23;20386;-71
2023/06/03 05:16:42;;;;;;;;;;;;;;;-140.72;100.00;52628.28;6244943;23;19939;-71
2023/06/03 05:19:07;;;;;;;;;;;;;;;-140.72;100.00;52640.44;6245429;23;19919;-72
2023/06/03 05:21:32;;;;;;;;;;;;;;;-140.72;100.00;52640.44;6245337;23;19911;-72
2023/06/03 05:23:58;;;;;;;;;;;;;;;-140.72;100.00;52626.25;6245547;23;19912;-74
2023/06/03 05:26:26;;;;;;;;;;;;;;;-140.72;100.00;52695.25;6218440;23;19916;-73
2023/06/03 05:28:54;;;;;;;;;;;;;;;-140.72;100.00;52662.78;6245203;23;20243;-75
2023/06/03 05:31:19;;;;;;;;;;;;;;;-140.72;100.00;52640.44;6245024;23;19911;-74
2023/06/03 05:33:45;;;;;;;;;;;;;;;-140.72;100.00;52672.91;6245216;23;19939;-74
2023/06/03 05:36:12;;;;;;;;;;;;;;;-140.72;100.00;52648.56;6245060;23;20304;-74
2023/06/03 05:38:40;;;;;;;;;;;;;;;-140.72;100.00;52642.47;6246654;22;19982;-73
2023/06/03 05:41:06;;;;;;;;;;;;;;;-140.72;100.00;52624.22;6245973;23;19911;-75
2023/06/03 05:43:31;;;;;;;;;;;;;;;-140.72;100.00;52654.66;6218963;23;20331;-78
2023/06/03 05:45:57;;;;;;;;;;;;;;;-140.72;100.00;52601.91;6246960;23;19994;-71
2023/06/03 05:48:22;;;;;;;;;;;;;;;-140.72;100.00;52638.41;6253032;23;19916;-71
2023/06/03 05:50:49;;;;;;;;;;;;;;;-140.72;100.00;52610.00;6245794;23;19919;-70
2023/06/03 05:53:14;;;;;;;;;;;;;;;-140.72;100.00;52634.38;6245637;23;19911;-71
2023/06/03 05:55:40;;;;;;;;;;;;;;;-140.72;100.00;52638.41;6245490;23;19954;-71
2023/06/03 05:58:05;;;;;;;;;;;;;;;-140.72;100.00;52638.41;6218030;23;19916;-71
2023/06/03 06:00:30;;;;;;;;;;;;;;;-140.72;100.00;52658.72;6244971;23;19919;-71
2023/06/03 06:02:55;;;;;;;;;;;;;;;-140.72;100.00;52640.44;6217802;23;20189;-71
2023/06/03 06:05:21;;;;;;;;;;;;;;;-140.72;100.00;52599.88;6244428;23;20319;-71
2023/06/03 06:07:46;;;;;;;;;;;;;;;-140.72;100.00;52577.53;6244603;23;19915;-71
2023/06/03 06:10:11;;;;;;;;;;;;;;;-140.72;100.00;52557.25;6217970;23;19915;-71
2023/06/03 06:12:36;;;;;;;;;;;;;;;-140.72;100.00;52573.50;6244867;23;19935;-71
2023/06/03 06:15:02;;;;;;;;;;;;;;;-140.72;69.63;52573.50;6244613;23;19939;-71
2023/06/03 06:17:27;;;;;;;;;;;;;;;-140.72;49.81;52557.25;6244793;23;19915;-72
2023/06/03 06:19:52;;;;;;;;;;;;;;;-140.72;19.68;52563.34;6244993;23;20013;-75
2023/06/03 06:22:17;;;;;;;;;;;;;;;-140.72;3.77;52561.31;6244836;23;19912;-71
2023/06/03 06:24:43;;;;;;;;;;;;;;;-140.72;0.00;52589.72;6244963;23;19922;-71
2023/06/03 06:27:08;;;;;;;;;;;;;;;-140.72;0.00;52561.31;6244709;23;19912;-71
2023/06/03 06:29:33;;;;;;;;;;;;;;;-140.72;0.00;52561.31;6217312;23;19954;-71
2023/06/03 06:31:59;;;;;;;;;;;;;;;-140.72;0.00;52583.63;6218899;23;19918;-71
2023/06/03 06:34:29;;;;;;;;;;;;;;;-140.72;0.00;52595.81;6218797;23;19918;-70
2023/06/03 06:36:55;;;;;;;;;;;;;;;-140.72;0.00;52573.50;6245361;23;19911;-71
2023/06/03 06:39:43;;;;;;;;;;;;;;;-140.72;0.00;52599.88;6245059;22;19934;-71
2023/06/03 06:42:10;;;;;;;;;;;;;;;-140.72;0.00;52549.13;6198935;23;20004;-72
2023/06/03 06:44:42;;;;;;;;;;;;;;;-140.72;0.00;52571.47;6244819;23;20010;-71
2023/06/03 06:47:09;;;;;;;;;;;;;;;-140.72;0.00;52534.94;6244809;23;19919;-71
2023/06/03 06:49:35;;;;;;;;;;;;;;;-140.72;0.00;52553.19;6218289;23;19911;-71
2023/06/03 06:52:01;;;;;;;;;;;;;;;-140.72;0.00;52520.72;6245194;23;19943;-72
2023/06/03 06:54:26;;;;;;;;;;;;;;;-140.72;0.00;52555.22;6245062;23;20324;-71
2023/06/03 06:56:51;;;;;;;;;;;;;;;-140.72;0.00;52528.84;6244716;23;20305;-71
2023/06/03 06:59:17;;;;;;;;;;;;;;;-140.72;0.00;52522.75;6245259;23;19911;-71
2023/06/03 07:01:42;;;;;;;;;;;;;;;-140.72;0.00;52520.72;6245776;23;19915;-71
2023/06/03 07:04:07;;;;;;;;;;;;;;;-140.72;0.00;52536.97;6246566;23;19934;-71
2023/06/03 07:06:32;;;;;;;;;;;;;;;-140.72;0.00;52498.41;6246411;23;20229;-71
2023/06/03 07:08:57;;;;;;;;;;;;;;;-140.72;0.00;52520.72;6246725;23;20300;-71
2023/06/03 07:11:23;;;;;;;;;;;;;;;-140.72;0.00;52492.31;6246395;23;19920;-72
2023/06/03 07:13:50;;;;;;;;;;;;;;;-140.72;0.00;52508.56;6246770;23;20040;-71
2023/06/03 07:16:15;;;;;;;;;;;;;;;-140.72;0.00;52488.25;6219312;23;19922;-71
2023/06/03 07:18:43;;;;;;;;;;;;;;;-140.72;0.00;52492.31;6245816;23;19915;-71
2023/06/03 07:24:16;;;;;;;;;;;;;;;-140.72;0.00;52510.59;6245951;23;19915;-73
2023/06/03 07:26:41;;;;;;;;;;;;;;;-140.72;0.00;52467.97;6246570;23;19935;-73
2023/06/03 07:29:07;;;;;;;;;;;;;;;-140.72;0.00;52474.06;6246322;23;20289;-73
2023/06/03 07:31:56;;;;;;;;;;;;;;;-140.72;0.00;52476.09;6246478;23;19919;-73
2023/06/03 07:34:22;;;;;;;;;;;;;;;-140.72;0.00;52484.19;6222375;23;19919;-73
2023/06/03 07:36:58;;;;;;;;;;;;;;;-140.72;0.00;52455.78;6254021;23;19990;-75
2023/06/03 07:39:23;;;;;;;;;;;;;;;-140.72;0.00;52492.31;6249851;22;19922;-75
2023/06/03 07:41:53;;;;;;;;;;;;;;;-140.72;0.00;52433.47;6220027;23;20286;-72
2023/06/03 07:47:25;;;;;;;;;;;;;;;-140.72;0.00;52451.72;6246413;23;19931;-72
2023/06/03 07:50:11;;;;;;;;;;;;;;;-140.72;0.00;52445.66;6246405;23;20235;-73
2023/06/03 07:52:39;;;;;;;;;;;;;;;-140.72;0.00;52427.38;6246185;23;19961;-73
2023/06/03 07:55:15;;;;;;;;;;;;;;;-140.72;0.00;52431.44;6219436;23;19911;-73
2023/06/03 07:57:46;;;;;;;;;;;;;;;-140.72;0.00;52413.19;6220684;23;19916;-73
2023/06/03 08:00:13;;;;;;;;;;;;;;;-140.72;0.00;52419.28;6247189;23;19922;-73
2023/06/03 08:02:38;;;;;;;;;;;;;;;-140.72;0.00;52419.28;6245771;23;19919;-71
2023/06/03 08:05:07;;;;;;;;;;;;;;;-140.72;0.00;52409.13;6245918;23;19912;-72
2023/06/03 08:07:34;;;;;;;;;;;;;;;-140.72;0.00;52394.91;6219261;23;19998;-72
2023/06/03 08:10:04;;;;;;;;;;;;;;;-140.72;0.00;52394.91;6246577;23;19918;-74
2023/06/03 08:12:36;;;;;;;;;;;;;;;-140.72;0.00;52352.31;6246133;23;19911;-73
2023/06/03 08:15:03;;;;;;;;;;;;;;;-140.72;0.00;52390.84;6219041;23;19911;-74
2023/06/03 08:17:37;;;;;;;;;;;;;;;-140.72;0.00;52384.78;6246538;23;20205;-73
2023/06/03 08:20:08;;;;;;;;;;;;;;;-140.72;0.00;52338.09;6217566;23;19915;-74
2023/06/03 08:22:50;;;;;;;;;;;;;;;-140.72;0.00;52338.09;6246471;23;19919;-77
2023/06/03 08:25:15;;;;;;;;;;;;;;;-140.72;0.00;52350.28;6219128;23;19918;-73
2023/06/03 08:27:45;;;;;;;;;;;;;;;-140.72;0.00;52346.22;6219437;23;19951;-73
2023/06/03 08:30:22;;;;;;;;;;;;;;;-140.72;0.00;52321.88;6246416;23;19918;-73
2023/06/03 08:33:24;;;;;;;;;;;;;;;-140.72;0.00;52315.78;6246011;23;19935;-72
2023/06/03 08:35:50;;;;;;;;;;;;;;;-140.72;0.00;52338.09;6245945;23;20293;-74
2023/06/03 08:38:16;;;;;;;;;;;;;;;-140.72;0.00;52293.47;6245785;23;19912;-72
2023/06/03 08:41:01;;;;;;;;;;;;;;;-140.72;0.00;52291.44;6245471;22;19911;-73
2023/06/03 08:43:32;;;;;;;;;;;;;;;-140.72;0.00;52281.28;6218138;23;19916;-73
2023/06/03 08:46:01;;;;;;;;;;;;;;;-140.72;0.00;52261.00;6245333;23;20505;-73
2023/06/03 08:48:53;;;;;;;;;;;;;;;-140.72;0.00;52256.94;6245940;23;19912;-73
2023/06/03 08:51:21;;;;;;;;;;;;;;;-140.72;0.00;52256.94;6245298;23;19911;-74
2023/06/03 08:53:49;;;;;;;;;;;;;;;-140.72;0.00;52240.72;6218506;23;20074;-78
2023/06/03 08:56:19;;;;;;;;;;;;;;;-140.72;0.00;52224.47;6245935;23;19918;-72
2023/06/03 08:58:51;;;;;;;;;;;;;;;-140.72;0.00;52297.53;6244765;23;19912;-71
2023/06/03 09:01:19;;;;;;;;;;;;;;;-140.72;0.00;52273.19;6218261;23;19911;-73
2023/06/03 09:03:45;;;;;;;;;;;;;;;-140.72;0.00;52252.88;6218463;23;20208;-72
2023/06/03 09:06:14;;;;;;;;;;;;;;;-140.72;0.00;52256.94;6245571;23;19912;-73
2023/06/03 09:08:40;;;;;;;;;;;;;;;-140.72;0.00;52226.50;6245604;23;19911;-73
2023/06/03 09:14:35;;;;;;;;;;;;;;;-140.72;0.00;52189.97;6244837;23;19918;-73
2023/06/03 09:17:00;;;;;;;;;;;;;;;-140.72;0.00;52149.41;6244932;23;19916;-73
2023/06/03 09:19:26;;;;;;;;;;;;;;;-140.72;0.00;52151.44;6249799;23;20348;-72
2023/06/03 09:21:52;;;;;;;;;;;;;;;-140.72;0.00;52139.25;6254339;23;19919;-72
2023/06/03 09:24:33;;;;;;;;;;;;;;;-140.72;0.00;52147.38;6251624;23;20346;-74
2023/06/03 09:27:05;;;;;;;;;;;;;;;-140.72;0.00;52139.25;6246645;23;19942;-73
2023/06/03 09:29:30;;;;;;;;;;;;;;;-140.72;0.00;52141.28;6219280;23;19966;-73
2023/06/03 09:31:56;;;;;;;;;;;;;;;-140.72;0.00;52090.56;6220541;23;19911;-72
2023/06/03 09:34:22;;;;;;;;;;;;;;;-140.72;0.00;52056.06;6246888;23;20332;-71
2023/06/03 09:36:49;;;;;;;;;;;;;;;-140.72;0.00;52082.44;6247706;23;19922;-72
2023/06/03 09:39:30;;;;;;;;;;;;;;;-140.72;0.00;52054.03;6254536;22;19998;-71
2023/06/03 09:41:56;;;;;;;;;;;;;;;-140.72;0.00;52062.16;6226334;23;19923;-70
2023/06/03 09:44:41;;;;;;;;;;;;;;;-140.72;0.00;52029.69;6252404;23;19912;-73
2023/06/03 09:47:06;;;;;;;;;;;;;;;-140.72;0.00;52064.19;6250529;23;19912;-70
2023/06/03 09:49:31;;;;;;;;;;;;;;;-140.72;0.00;52056.06;6251362;23;20220;-72
2023/06/03 09:51:58;;;;;;;;;;;;;;;-140.72;0.00;52045.94;6248405;23;19920;-70
2023/06/03 09:54:24;;;;;;;;;;;;;;;-140.72;0.00;52054.03;6246785;23;19912;-71
2023/06/03 09:57:07;;;;;;;;;;;;;;;-140.72;0.00;51989.13;6247086;23;20426;-72
2023/06/03 09:59:33;;;;;;;;;;;;;;;-140.72;0.00;52039.84;6246546;23;19916;-71
2023/06/03 10:01:58;;;;;;;;;;;;;;;-140.72;0.00;52041.88;6247149;23;19923;-71
2023/06/03 10:04:24;;;;;;;;;;;;;;;-140.72;0.00;52045.94;6245677;23;19912;-71
2023/06/03 10:07:05;;;;;;;;;;;;;;;-140.72;0.00;51960.72;6245485;23;19918;-71
2023/06/03 10:09:46;;;;;;;;;;;;;;;-140.72;0.00;51942.44;6247211;23;19918;-72
2023/06/03 10:12:12;;;;;;;;;;;;;;;-140.72;0.00;51901.88;6246082;23;20004;-72
2023/06/03 10:17:30;;;;;;;;;;;;;;;-140.72;0.00;51901.88;6245518;23;20248;-72
2023/06/03 10:19:55;;;;;;;;;;;;;;;-140.72;0.00;51887.66;6245449;23;19911;-72
2023/06/03 10:22:21;;;;;;;;;;;;;;;-140.72;0.00;51958.69;6218558;23;19912;-72
2023/06/03 10:24:47;;;;;;;;;;;;;;;-140.72;0.00;51859.28;6245663;23;19939;-72
2023/06/03 10:27:13;;;;;;;;;;;;;;;-140.72;0.00;51887.66;6246186;23;19922;-72
2023/06/03 10:29:38;;;;;;;;;;;;;;;-140.72;0.00;51899.84;6247470;23;19912;-76
2023/06/03 10:32:07;;;;;;;;;;;;;;;-140.72;0.00;51891.72;6245520;23;20331;-71
2023/06/03 10:34:36;;;;;;;;;;;;;;;-140.72;0.00;51901.88;6245092;23;19916;-71
2023/06/03 10:37:15;;;;;;;;;;;;;;;-140.72;0.00;51912.03;6245551;23;19912;-71
2023/06/03 10:39:44;;;;;;;;;;;;;;;-140.72;0.00;51830.88;6247208;22;19911;-71
2023/06/03 10:42:10;;;;;;;;;;;;;;;-140.72;0.00;51822.75;6247145;23;19965;-71
2023/06/03 10:44:35;;;;;;;;;;;;;;;-140.72;0.00;51869.41;6246794;23;19994;-71
2023/06/03 10:47:10;;;;;;;;;;;;;;;-140.72;0.00;51830.88;6246132;23;20001;-71
2023/06/03 10:49:40;;;;;;;;;;;;;;;-140.72;0.00;51802.47;6245841;23;20331;-70
2023/06/03 10:52:25;;;;;;;;;;;;;;;-140.72;0.00;51802.47;6219110;23;19918;-71
2023/06/03 10:55:01;;;;;;;;;;;;;;;-140.72;0.00;51806.53;6169540;23;19912;-71
2023/06/03 10:57:34;;;;;;;;;;;;;;;-140.72;0.00;51816.66;6247093;23;20326;-71
2023/06/03 10:59:59;;;;;;;;;;;;;;;-140.72;0.00;51816.66;6247599;23;19911;-71
2023/06/03 11:02:25;;;;;;;;;;;;;;;-140.72;0.00;51861.28;6246687;23;20196;-71
2023/06/03 11:05:11;;;;;;;;;;;;;;;-140.72;0.00;51826.81;6219214;23;19912;-71
2023/06/03 11:07:36;;;;;;;;;;;;;;;-140.72;0.00;51782.16;6246541;23;20042;-71
2023/06/03 11:10:01;;;;;;;;;;;;;;;-140.72;0.00;51772.03;6247463;23;19911;-74
2023/06/03 11:12:45;;;;;;;;;;;;;;;-140.72;0.00;51822.75;6247737;23;19939;-71
2023/06/03 11:15:10;;;;;;;;;;;;;;;-140.72;0.00;51822.75;6247810;23;20243;-72
2023/06/03 11:17:36;;;;;;;;;;;;;;;-140.72;0.00;51782.16;6246743;23;19916;-71
2023/06/03 11:20:01;;;;;;;;;;;;;;;-140.72;0.00;51727.41;6246323;23;19918;-71
2023/06/03 11:22:29;;;;;;;;;;;;;;;-140.72;0.00;51739.56;6246342;23;19943;-71
2023/06/03 11:24:58;;;;;;;;;;;;;;;-140.72;0.00;51696.97;6245670;23;20276;-71
2023/06/03 11:27:25;;;;;;;;;;;;;;;-140.72;0.00;51672.63;6246229;23;20231;-72
2023/06/03 11:29:51;;;;;;;;;;;;;;;-140.72;0.00;51660.44;6246152;23;19912;-71
2023/06/03 11:32:35;;;;;;;;;;;;;;;-140.72;0.00;51688.84;6246212;23;19934;-72
2023/06/03 11:35:03;;;;;;;;;;;;;;;-140.72;0.00;51757.81;6246152;23;20243;-71
2023/06/03 11:37:46;;;;;;;;;;;;;;;-140.72;0.00;51690.88;6246132;23;19942;-71
2023/06/03 11:40:14;;;;;;;;;;;;;;;-140.72;0.00;51656.38;6245994;22;19998;-71
2023/06/03 11:42:46;;;;;;;;;;;;;;;-140.72;0.00;51676.69;6246735;23;20045;-71
2023/06/03 11:45:37;;;;;;;;;;;;;;;-140.72;0.00;51699.00;6245723;23;19912;-71
2023/06/03 11:48:11;;;;;;;;;;;;;;;-140.72;0.00;51638.13;6217904;23;19958;-71
2023/06/03 11:50:49;;;;;;;;;;;;;;;-140.72;0.00;51625.97;6245365;23;19922;-71
2023/06/03 11:53:28;;;;;;;;;;;;;;;-140.72;0.00;51692.91;6245919;23;19943;-71
2023/06/03 11:56:00;;;;;;;;;;;;;;;-140.72;0.00;51688.84;6246455;23;20350;-71
2023/06/03 11:58:25;;;;;;;;;;;;;;;-140.72;0.00;51625.97;6246007;23;19959;-71
2023/06/03 12:01:02;;;;;;;;;;;;;;;-140.72;0.00;51623.94;6246522;23;19911;-71
2023/06/03 12:03:27;;;;;;;;;;;;;;;-140.72;0.00;51613.78;6247197;23;19911;-71
2023/06/03 12:05:53;;;;;;;;;;;;;;;-140.72;0.00;51611.75;6247665;23;20200;-71
2023/06/03 12:08:18;;;;;;;;;;;;;;;-140.72;0.00;51628.00;6245822;23;20180;-71
2023/06/03 12:10:43;;;;;;;;;;;;;;;-140.72;0.00;51619.88;6218768;23;19966;-71
2023/06/03 12:13:09;;;;;;;;;;;;;;;-140.72;0.00;51556.97;6245645;23;19951;-71
2023/06/03 12:15:35;;;;;;;;;;;;;;;-140.72;0.00;51660.44;6218559;23;19912;-71
2023/06/03 12:18:04;;;;;;;;;;;;;;;-140.72;0.00;51660.44;6218481;23;19953;-71
2023/06/03 12:20:30;;;;;;;;;;;;;;;-140.72;0.00;51605.66;6218941;23;19919;-71
2023/06/03 12:23:09;;;;;;;;;;;;;;;-140.72;0.00;51658.41;6245528;23;19943;-71
2023/06/03 12:25:35;;;;;;;;;;;;;;;-140.72;0.00;51630.00;6245989;23;19939;-71
2023/06/03 12:28:19;;;;;;;;;;;;;;;-140.72;0.00;51599.59;6245571;23;19912;-71
2023/06/03 12:30:45;;;;;;;;;;;;;;;-140.72;0.00;51571.19;6245455;23;20009;-71
2023/06/03 12:33:10;;;;;;;;;;;;;;;-140.72;0.00;51611.75;6245869;23;20335;-71
2023/06/03 12:35:36;;;;;;;;;;;;;;;-140.72;0.00;51552.94;6245927;23;19919;-71
2023/06/03 12:38:05;;;;;;;;;;;;;;;-140.72;0.00;51579.28;6245836;23;19975;-71
2023/06/03 12:40:30;;;;;;;;;;;;;;;-140.72;0.00;51581.31;6245757;22;19915;-72
2023/06/03 12:42:56;;;;;;;;;;;;;;;-140.72;0.00;51579.28;6246118;23;19923;-71